Dades meteomassalio
Diari Summary for Maig 30, 2017 Units:  Metric    English   Both
« Previous Day
Next Day »
Diari Semanal Mensual Anual Personalitzat
  Maxima: Minima: Mijana:
Temperatura: 27.0 °C 12.8 °C 20 °C
Rosada: 14.2 °C 8.1 °C 11.3 °C
Humitat: 84 % 38 % 59 %
Velocitat del vent: 29.6 km/h 0.0 km/h 5.8 km/h
Racha vent: 29.6 km/h - -
Vent:- - SE
Pressio: 1017.8 hPa 1013.8 hPa -
Pluja: 0.0 mm    
Historical Graphs
 
 
Tabular Data for Maig 30, 2017
Time Temperature Dew Point Pressure Wind Wind Speed Wind Gust Humidity Rainfall Rate (Hourly) solar Conditions
00:02 18.6 °C 11.2 °C 1014.4 hPa Calm     62 % 0.0 mm 0.0 W/m2 CLR
00:07 18.3 °C 11.2 °C 1014.8 hPa Calm     63 % 0.0 mm 0.0 W/m2 CLR
00:12 18.2 °C 11.3 °C 1014.8 hPa Calm     64 % 0.0 mm 0.0 W/m2 CLR
00:17 18.2 °C 11.2 °C 1014.8 hPa Calm     64 % 0.0 mm 0.0 W/m2 CLR
00:22 18.1 °C 11.1 °C 1014.8 hPa Calm     64 % 0.0 mm 0.0 W/m2 CLR
00:27 18.0 °C 10.8 °C 1014.8 hPa Calm     63 % 0.0 mm 0.0 W/m2 CLR
00:32 17.9 °C 11.1 °C 1014.4 hPa Calm     64 % 0.0 mm 0.0 W/m2 CLR
00:37 17.9 °C 11.5 °C 1014.4 hPa Calm     66 % 0.0 mm 0.0 W/m2 CLR
00:42 17.9 °C 11.5 °C 1014.8 hPa Calm     66 % 0.0 mm 0.0 W/m2 CLR
00:47 17.9 °C 11.0 °C 1014.8 hPa Calm     64 % 0.0 mm 0.0 W/m2 CLR
00:52 17.8 °C 11.4 °C 1014.8 hPa Calm     66 % 0.0 mm 0.0 W/m2 CLR
00:57 17.8 °C 10.9 °C 1014.8 hPa Calm     64 % 0.0 mm 0.0 W/m2 CLR
01:02 17.7 °C 11.0 °C 1014.8 hPa Calm     65 % 0.0 mm 0.0 W/m2 CLR
01:07 17.6 °C 11.1 °C 1014.8 hPa Calm     66 % 0.0 mm 0.0 W/m2 CLR
01:12 17.4 °C 10.8 °C 1014.8 hPa Calm     65 % 0.0 mm 0.0 W/m2 CLR
01:17 17.3 °C 11.2 °C 1014.8 hPa Calm     67 % 0.0 mm 0.0 W/m2 CLR
01:22 17.2 °C 10.8 °C 1014.8 hPa Calm     66 % 0.0 mm 0.0 W/m2 CLR
01:27 17.1 °C 10.7 °C 1014.8 hPa Calm     66 % 0.0 mm 0.0 W/m2 CLR
01:32 16.8 °C 10.4 °C 1014.8 hPa Calm     66 % 0.0 mm 0.0 W/m2 CLR
01:37 16.7 °C 10.1 °C 1014.8 hPa Calm     65 % 0.0 mm 0.0 W/m2 CLR
01:42 16.6 °C 10.2 °C 1014.8 hPa Calm     66 % 0.0 mm 0.0 W/m2 CLR
01:47 16.4 °C 9.8 °C 1014.8 hPa Calm     65 % 0.0 mm 0.0 W/m2 CLR
01:52 16.3 °C 9.7 °C 1014.8 hPa Calm     65 % 0.0 mm 0.0 W/m2 CLR
01:57 16.1 °C 9.9 °C 1014.8 hPa Calm     67 % 0.0 mm 0.0 W/m2 CLR
02:02 15.9 °C 9.8 °C 1014.8 hPa Calm     67 % 0.0 mm 0.0 W/m2 CLR
02:07 15.8 °C 9.7 °C 1014.4 hPa Calm     67 % 0.0 mm 0.0 W/m2 CLR
02:12 15.8 °C 9.4 °C 1014.4 hPa Calm     66 % 0.0 mm 0.0 W/m2 CLR
02:17 15.7 °C 9.6 °C 1014.4 hPa Calm     67 % 0.0 mm 0.0 W/m2 CLR
02:22 15.6 °C 9.5 °C 1014.4 hPa Calm     67 % 0.0 mm 0.0 W/m2 CLR
02:27 15.6 °C 9.5 °C 1014.4 hPa Calm     67 % 0.0 mm 0.0 W/m2 CLR
02:32 15.6 °C 9.4 °C 1014.4 hPa Calm     67 % 0.0 mm 0.0 W/m2 CLR
02:37 15.4 °C 9.3 °C 1014.4 hPa Calm     67 % 0.0 mm 0.0 W/m2 CLR
02:42 15.3 °C 9.0 °C 1014.4 hPa Calm     66 % 0.0 mm 0.0 W/m2 CLR
02:47 15.3 °C 8.9 °C 1014.4 hPa Calm     66 % 0.0 mm 0.0 W/m2 CLR
02:52 15.1 °C 8.8 °C 1014.4 hPa WSW 5.6 km/h 5.6 km/h 66 % 0.0 mm 0.0 W/m2 CLR
02:57 15.2 °C 9.3 °C 1014.4 hPa SW 7.4 km/h 7.4 km/h 68 % 0.0 mm 0.0 W/m2 CLR
03:02 15.7 °C 9.6 °C 1014.4 hPa SW 1.9 km/h   67 % 0.0 mm 0.0 W/m2 CLR
03:07 15.8 °C 9.2 °C 1014.4 hPa Calm     65 % 0.0 mm 0.0 W/m2 CLR
03:12 15.7 °C 9.2 °C 1014.4 hPa Calm     65 % 0.0 mm 0.0 W/m2 CLR
03:17 15.6 °C 9.2 °C 1014.1 hPa Calm     66 % 0.0 mm 0.0 W/m2 CLR
03:22 15.3 °C 9.0 °C 1014.1 hPa Calm     66 % 0.0 mm 0.0 W/m2 CLR
03:27 15.2 °C 8.9 °C 1014.1 hPa Calm     66 % 0.0 mm 0.0 W/m2 CLR
03:32 15.1 °C 8.7 °C 1014.1 hPa Calm     66 % 0.0 mm 0.0 W/m2 CLR
03:37 14.9 °C 8.9 °C 1014.1 hPa Calm     67 % 0.0 mm 0.0 W/m2 CLR
03:42 14.8 °C 8.8 °C 1014.1 hPa Calm     67 % 0.0 mm 0.0 W/m2 CLR
03:47 14.8 °C 8.9 °C 1014.1 hPa Calm     68 % 0.0 mm 0.0 W/m2 CLR
03:52 14.7 °C 9.1 °C 1013.8 hPa Calm     69 % 0.0 mm 0.0 W/m2 CLR
03:57 14.6 °C 8.6 °C 1013.8 hPa Calm     67 % 0.0 mm 0.0 W/m2 CLR
04:02 14.5 °C 8.4 °C 1013.8 hPa Calm     67 % 0.0 mm 0.0 W/m2 CLR
04:07 14.4 °C 8.6 °C 1013.8 hPa Calm     68 % 0.0 mm 0.0 W/m2 CLR
04:12 14.3 °C 8.4 °C 1013.8 hPa Calm     68 % 0.0 mm 0.0 W/m2 CLR
04:17 14.1 °C 8.5 °C 1014.1 hPa Calm     69 % 0.0 mm 0.0 W/m2 CLR
04:22 14.0 °C 8.6 °C 1014.1 hPa Calm     70 % 0.0 mm 0.0 W/m2 CLR
04:27 13.9 °C 8.6 °C 1014.1 hPa Calm     70 % 0.0 mm 0.0 W/m2 CLR
04:32 13.9 °C 8.3 °C 1014.1 hPa Calm     69 % 0.0 mm 0.0 W/m2 CLR
04:37 13.9 °C 8.3 °C 1014.1 hPa Calm     69 % 0.0 mm 0.0 W/m2 CLR
04:42 13.9 °C 8.3 °C 1014.1 hPa Calm     69 % 0.0 mm 0.0 W/m2 CLR
04:47 13.9 °C 8.3 °C 1014.1 hPa Calm     69 % 0.0 mm 0.0 W/m2 CLR
04:52 13.9 °C 8.3 °C 1014.1 hPa Calm     69 % 0.0 mm 0.0 W/m2 CLR
04:57 13.8 °C 8.2 °C 1014.1 hPa Calm     69 % 0.0 mm 0.0 W/m2 CLR
05:02 13.7 °C 8.1 °C 1014.1 hPa WNW 1.9 km/h   69 % 0.0 mm 0.0 W/m2 CLR
05:07 13.8 °C 8.8 °C 1014.1 hPa Calm     72 % 0.0 mm 0.0 W/m2 CLR
05:12 13.8 °C 8.4 °C 1014.1 hPa Calm     70 % 0.0 mm 0.0 W/m2 CLR
05:17 13.8 °C 8.4 °C 1014.4 hPa Calm     70 % 0.0 mm 0.0 W/m2 CLR
05:22 13.7 °C 8.3 °C 1014.4 hPa Calm     70 % 0.0 mm 0.0 W/m2 CLR
05:27 13.7 °C 8.5 °C 1014.4 hPa Calm     71 % 0.0 mm 0.0 W/m2 CLR
05:32 13.6 °C 8.4 °C 1014.4 hPa Calm     71 % 0.0 mm 0.0 W/m2 CLR
05:37 13.4 °C 8.3 °C 1014.4 hPa Calm     71 % 0.0 mm 0.0 W/m2 CLR
05:42 13.3 °C 8.2 °C 1014.4 hPa Calm     71 % 0.0 mm 0.0 W/m2 CLR
05:47 13.3 °C 8.4 °C 1014.8 hPa Calm     72 % 0.0 mm 0.0 W/m2 CLR
05:52 13.3 °C 8.3 °C 1014.8 hPa Calm     72 % 0.0 mm 0.0 W/m2 CLR
05:57 13.1 °C 8.2 °C 1014.8 hPa Calm     72 % 0.0 mm 0.0 W/m2 CLR
06:02 13.1 °C 8.5 °C 1014.8 hPa Calm     74 % 0.0 mm 0.0 W/m2 CLR
06:07 13.0 °C 8.4 °C 1014.8 hPa Calm     74 % 0.0 mm 0.0 W/m2 CLR
06:12 12.9 °C 8.6 °C 1014.8 hPa Calm     75 % 0.0 mm 0.0 W/m2 CLR
06:17 12.8 °C 8.7 °C 1014.8 hPa Calm     76 % 0.0 mm 0.0 W/m2 CLR
06:22 12.8 °C 8.9 °C 1014.8 hPa Calm     77 % 0.0 mm 0.0 W/m2 OVC
06:27 12.8 °C 9.1 °C 1014.8 hPa Calm     78 % 0.0 mm 0.0 W/m2 OVC
06:33 12.8 °C 9.1 °C 1014.8 hPa Calm     78 % 0.0 mm 0.0 W/m2 OVC
06:38 13.1 °C 10.1 °C 1014.8 hPa WSW 7.4 km/h 7.4 km/h 82 % 0.0 mm 0.0 W/m2 OVC
06:43 13.6 °C 10.6 °C 1014.8 hPa Calm     82 % 0.0 mm 5.0 W/m2 OVC
06:48 13.6 °C 10.0 °C 1014.8 hPa Calm     79 % 0.0 mm 5.0 W/m2 OVC
06:53 13.4 °C 9.8 °C 1014.8 hPa Calm     79 % 0.0 mm 7.0 W/m2 BKN
06:58 13.3 °C 9.9 °C 1015.1 hPa Calm     80 % 0.0 mm 9.0 W/m2 BKN
07:03 13.2 °C 10.0 °C 1015.1 hPa Calm     81 % 0.0 mm 9.0 W/m2 BKN
07:08 13.1 °C 10.1 °C 1015.1 hPa Calm     82 % 0.0 mm 11.0 W/m2 BKN
07:13 13.1 °C 10.1 °C 1015.1 hPa Calm     82 % 0.0 mm 12.0 W/m2 BKN
07:18 13.2 °C 10.4 °C 1015.1 hPa Calm     83 % 0.0 mm 12.0 W/m2 BKN
07:23 13.3 °C 10.3 °C 1015.1 hPa Calm     82 % 0.0 mm 16.0 W/m2 BKN
07:28 13.4 °C 10.4 °C 1015.1 hPa Calm     82 % 0.0 mm 21.0 W/m2 BKN
07:33 13.4 °C 10.4 °C 1015.1 hPa Calm     82 % 0.0 mm 28.0 W/m2 BKN
07:38 13.3 °C 10.3 °C 1015.5 hPa Calm     82 % 0.0 mm 35.0 W/m2 BKN
07:43 13.3 °C 10.5 °C 1015.5 hPa Calm     83 % 0.0 mm 40.0 W/m2 BKN
07:48 13.4 °C 10.8 °C 1015.5 hPa Calm     84 % 0.0 mm 53.0 W/m2 BKN
07:53 13.6 °C 10.8 °C 1015.5 hPa Calm     83 % 0.0 mm 109.0 W/m2 SCT
07:58 13.8 °C 11.0 °C 1015.5 hPa Calm     83 % 0.0 mm 70.0 W/m2 CLR
08:03 14.1 °C 11.2 °C 1015.5 hPa Calm     83 % 0.0 mm 77.0 W/m2 CLR
08:08 14.2 °C 11.2 °C 1015.8 hPa Calm     82 % 0.0 mm 74.0 W/m2 FEW
08:13 14.4 °C 11.3 °C 1015.8 hPa Calm     82 % 0.0 mm 88.0 W/m2 FEW
08:18 14.6 °C 10.8 °C 1015.8 hPa Calm     78 % 0.0 mm 139.0 W/m2 CLR
08:23 14.8 °C 10.6 °C 1015.8 hPa Calm     76 % 0.0 mm 104.0 W/m2 CLR
08:28 15.0 °C 10.6 °C 1015.8 hPa Calm     75 % 0.0 mm 123.0 W/m2 CLR
08:33 15.3 °C 10.7 °C 1015.8 hPa Calm     74 % 0.0 mm 156.0 W/m2 CLR
08:38 15.6 °C 11.0 °C 1015.8 hPa Calm     74 % 0.0 mm 287.0 W/m2 CLR
08:43 16.3 °C 11.4 °C 1015.8 hPa Calm     73 % 0.0 mm 380.0 W/m2 CLR
08:48 16.8 °C 11.1 °C 1015.8 hPa Calm     69 % 0.0 mm 339.0 W/m2 CLR
08:53 17.1 °C 11.4 °C 1015.8 hPa Calm     69 % 0.0 mm 178.0 W/m2 CLR
08:58 17.3 °C 11.6 °C 1015.8 hPa Calm     69 % 0.0 mm 246.0 W/m2 CLR
09:03 17.5 °C 11.7 °C 1015.8 hPa Calm     69 % 0.0 mm 385.0 W/m2 CLR
09:08 17.8 °C 12.1 °C 1015.8 hPa Calm     69 % 0.0 mm 253.0 W/m2 CLR
09:13 18.2 °C 11.9 °C 1015.8 hPa Calm     67 % 0.0 mm 213.0 W/m2 CLR
09:18 18.3 °C 12.1 °C 1015.8 hPa Calm     67 % 0.0 mm 186.0 W/m2 CLR
09:23 18.1 °C 11.9 °C 1015.8 hPa Calm     67 % 0.0 mm 171.0 W/m2 CLR
09:28 18.1 °C 11.8 °C 1015.8 hPa Calm     67 % 0.0 mm 229.0 W/m2 CLR
09:33 18.4 °C 12.4 °C 1015.8 hPa Calm     68 % 0.0 mm 188.0 W/m2 CLR
09:38 18.6 °C 12.6 °C 1016.1 hPa Calm     68 % 0.0 mm 227.0 W/m2 CLR
09:43 19.0 °C 12.7 °C 1016.1 hPa Calm     67 % 0.0 mm 603.0 W/m2 CLR
09:48 19.7 °C 13.4 °C 1016.1 hPa Calm     67 % 0.0 mm 628.0 W/m2 CLR
09:53 20.3 °C 13.2 °C 1016.1 hPa ENE 5.6 km/h 5.6 km/h 64 % 0.0 mm 315.0 W/m2 CLR
09:58 20.5 °C 13.9 °C 1016.1 hPa Calm     66 % 0.0 mm 684.0 W/m2 CLR
10:03 21.0 °C 13.9 °C 1016.1 hPa ENE 7.4 km/h 7.4 km/h 64 % 0.0 mm 701.0 W/m2 CLR
10:08 21.4 °C 13.8 °C 1016.1 hPa ENE 9.3 km/h 9.3 km/h 62 % 0.0 mm 714.0 W/m2 CLR
10:13 21.7 °C 14.1 °C 1015.8 hPa NNE 5.6 km/h 5.6 km/h 62 % 0.0 mm 707.0 W/m2 CLR
10:18 22.0 °C 14.1 °C 1016.1 hPa NE 7.4 km/h 7.4 km/h 61 % 0.0 mm 710.0 W/m2 CLR
10:23 22.2 °C 14.1 °C 1016.1 hPa East 9.3 km/h 9.3 km/h 60 % 0.0 mm 339.0 W/m2 CLR
10:28 21.9 °C 13.8 °C 1016.1 hPa ENE 5.6 km/h   60 % 0.0 mm 415.0 W/m2 CLR
10:33 22.1 °C 13.9 °C 1016.1 hPa ENE 5.6 km/h   60 % 0.0 mm 724.0 W/m2 CLR
10:38 22.6 °C 14.1 °C 1016.1 hPa NE 11.1 km/h 11.1 km/h 59 % 0.0 mm 724.0 W/m2 CLR
10:43 22.6 °C 14.2 °C 1015.8 hPa NE 7.4 km/h 7.4 km/h 59 % 0.0 mm 742.0 W/m2 CLR
10:49 22.8 °C 14.1 °C 1015.8 hPa ENE 9.3 km/h 9.3 km/h 58 % 0.0 mm 758.0 W/m2 CLR
10:54 22.8 °C 13.8 °C 1015.8 hPa East 3.7 km/h 3.7 km/h 57 % 0.0 mm 747.0 W/m2 CLR
10:59 22.4 °C 14.0 °C 1016.1 hPa Calm     59 % 0.0 mm 443.0 W/m2 CLR
11:04 22.1 °C 13.7 °C 1015.8 hPa South 3.7 km/h   59 % 0.0 mm 795.0 W/m2 CLR
11:09 22.2 °C 13.5 °C 1015.8 hPa ESE 5.6 km/h   58 % 0.0 mm 816.0 W/m2 CLR
11:14 22.3 °C 13.7 °C 1015.8 hPa NNW 5.6 km/h 5.6 km/h 58 % 0.0 mm 807.0 W/m2 CLR
11:19 22.8 °C 13.8 °C 1015.8 hPa Calm     57 % 0.0 mm 784.0 W/m2 CLR
11:24 23.1 °C 13.6 °C 1015.8 hPa North 9.3 km/h 9.3 km/h 55 % 0.0 mm 816.0 W/m2 CLR
11:29 23.1 °C 13.5 °C 1015.8 hPa Calm     55 % 0.0 mm 622.0 W/m2 CLR
11:34 23.1 °C 13.3 °C 1016.1 hPa West 9.3 km/h 9.3 km/h 54 % 0.0 mm 708.0 W/m2 CLR
11:39 22.9 °C 13.1 °C 1016.1 hPa NNW 7.4 km/h 7.4 km/h 54 % 0.0 mm 357.0 W/m2 CLR
11:44 22.8 °C 13.3 °C 1016.1 hPa Calm     55 % 0.0 mm 476.0 W/m2 CLR
11:49 23.0 °C 13.4 °C 1016.1 hPa Calm     55 % 0.0 mm 722.0 W/m2 CLR
11:54 23.5 °C 13.4 °C 1016.1 hPa SE 9.3 km/h 9.3 km/h 53 % 0.0 mm 508.0 W/m2 CLR
11:59 23.4 °C 13.3 °C 1016.1 hPa NNE 9.3 km/h 9.3 km/h 53 % 0.0 mm 515.0 W/m2 CLR
12:04 23.2 °C 12.8 °C 1016.1 hPa North 1.9 km/h 1.9 km/h 52 % 0.0 mm 396.0 W/m2 CLR
12:09 23.2 °C 13.1 °C 1016.1 hPa Calm     53 % 0.0 mm 371.0 W/m2 CLR
12:14 23.6 °C 13.2 °C 1016.1 hPa Calm     52 % 0.0 mm 933.0 W/m2 CLR
12:19 23.9 °C 12.9 °C 1016.1 hPa Calm     50 % 0.0 mm 898.0 W/m2 CLR
12:24 24.2 °C 13.1 °C 1016.1 hPa Calm     50 % 0.0 mm 905.0 W/m2 CLR
12:29 24.4 °C 12.7 °C 1016.1 hPa NE 6.4 km/h 6.4 km/h 48 % 0.0 mm 921.0 W/m2 CLR
12:34 24.6 °C 12.5 °C 1016.1 hPa WNW 7.4 km/h 7.4 km/h 47 % 0.0 mm 949.0 W/m2 CLR
12:39 24.7 °C 12.3 °C 1015.8 hPa NW 13.0 km/h 13.0 km/h 46 % 0.0 mm 944.0 W/m2 CLR
12:44 24.7 °C 12.3 °C 1015.8 hPa WNW 1.9 km/h 1.9 km/h 46 % 0.0 mm 940.0 W/m2 CLR
12:49 24.8 °C 12.1 °C 1015.8 hPa NW 5.6 km/h 5.6 km/h 45 % 0.0 mm 977.0 W/m2 CLR
12:59 25.0 °C 12.6 °C 1015.8 hPa ENE 8.0 km/h 8.0 km/h 46 % 0.0 mm 373.0 W/m2 CLR
13:04 24.9 °C 12.5 °C 1015.8 hPa ESE 13.0 km/h 13.0 km/h 46 % 0.0 mm 953.0 W/m2 CLR
13:09 25.1 °C 12.3 °C 1015.5 hPa East 11.1 km/h 11.1 km/h 45 % 0.0 mm 1143.0 W/m2 CLR
13:14 25.2 °C 12.4 °C 1015.5 hPa East 5.6 km/h 5.6 km/h 45 % 0.0 mm 1158.0 W/m2 CLR
13:16 25.2 °C 12.4 °C 1015.5 hPa Calm     45 % 0.0 mm 1158.0 W/m2 CLR
13:21 25.4 °C 12.6 °C 1015.5 hPa East 1.9 km/h 2.1 km/h 45 % 0.0 mm 645.0 W/m2 CLR
13:26 25.8 °C 12.2 °C 1015.5 hPa ESE 13.0 km/h 13.0 km/h 43 % 0.0 mm 1136.0 W/m2 CLR
13:31 25.6 °C 12.1 °C 1015.5 hPa ENE 13.0 km/h 13.0 km/h 43 % 0.0 mm 1090.0 W/m2 CLR
13:36 25.6 °C 12.1 °C 1015.5 hPa South 14.8 km/h 14.8 km/h 43 % 0.0 mm 1076.0 W/m2 CLR
13:41 25.3 °C 12.2 °C 1015.1 hPa SSE 9.7 km/h 9.7 km/h 44 % 0.0 mm 1041.0 W/m2 CLR
13:46 25.5 °C 12.0 °C 1015.1 hPa ENE 13.0 km/h 13.0 km/h 43 % 0.0 mm 1004.0 W/m2 CLR
13:51 25.9 °C 12.4 °C 1015.1 hPa ENE 9.3 km/h 9.3 km/h 43 % 0.0 mm 981.0 W/m2 CLR
13:56 26.3 °C 12.0 °C 1015.1 hPa NNE 9.3 km/h 9.3 km/h 41 % 0.0 mm 1032.0 W/m2 CLR
14:01 26.8 °C 12.1 °C 1015.1 hPa ENE 11.1 km/h 11.1 km/h 40 % 0.0 mm 1071.0 W/m2 CLR
14:06 27.0 °C 12.2 °C 1015.1 hPa Calm     40 % 0.0 mm 770.0 W/m2 CLR
14:11 26.7 °C 12.0 °C 1015.1 hPa East 7.4 km/h 7.4 km/h 40 % 0.0 mm 306.0 W/m2 CLR
14:16 26.3 °C 12.0 °C 1015.1 hPa ENE 13.0 km/h 13.0 km/h 41 % 0.0 mm 318.0 W/m2 CLR
14:21 25.8 °C 12.2 °C 1015.1 hPa ENE 9.3 km/h 9.3 km/h 43 % 0.0 mm 320.0 W/m2 CLR
14:26 25.7 °C 12.2 °C 1015.1 hPa NE 14.8 km/h 14.8 km/h 43 % 0.0 mm 308.0 W/m2 CLR
14:31 25.6 °C 12.4 °C 1015.1 hPa NNE 14.8 km/h 14.8 km/h 44 % 0.0 mm 306.0 W/m2 CLR
14:36 25.5 °C 12.3 °C 1015.1 hPa ENE 7.4 km/h 7.4 km/h 44 % 0.0 mm 329.0 W/m2 CLR
14:41 25.7 °C 12.5 °C 1015.1 hPa NE 5.6 km/h 5.6 km/h 44 % 0.0 mm 367.0 W/m2 CLR
14:46 25.8 °C 12.7 °C 1015.1 hPa ENE 8.0 km/h 8.0 km/h 44 % 0.0 mm 294.0 W/m2 CLR
14:51 25.8 °C 12.2 °C 1014.8 hPa ENE 11.1 km/h 11.1 km/h 43 % 0.0 mm 316.0 W/m2 CLR
14:56 25.6 °C 12.4 °C 1014.8 hPa SE 5.6 km/h 5.6 km/h 44 % 0.0 mm 378.0 W/m2 CLR
15:01 25.6 °C 12.1 °C 1014.8 hPa SSE 5.6 km/h 5.6 km/h 43 % 0.0 mm 415.0 W/m2 CLR
15:06 25.8 °C 12.3 °C 1014.8 hPa SE 9.3 km/h 9.3 km/h 43 % 0.0 mm 492.0 W/m2 CLR
15:11 25.9 °C 12.0 °C 1014.4 hPa SE 18.5 km/h 18.5 km/h 42 % 0.0 mm 390.0 W/m2 CLR
15:16 25.6 °C 12.1 °C 1014.8 hPa SE 24.1 km/h 24.1 km/h 43 % 0.0 mm 459.0 W/m2 CLR
15:19 25.4 °C 12.2 °C 1014.8 hPa SE 22.2 km/h 22.2 km/h 44 % 0.0 mm 997.0 W/m2 CLR
15:24 25.4 °C 12.3 °C 1014.8 hPa SSE 20.4 km/h 20.4 km/h 44 % 0.0 mm 469.0 W/m2 CLR
15:29 25.8 °C 11.9 °C 1014.4 hPa ESE 16.1 km/h 16.1 km/h 42 % 0.0 mm 396.0 W/m2 CLR
15:34 25.6 °C 12.1 °C 1014.4 hPa SSE 13.0 km/h 13.0 km/h 43 % 0.0 mm 403.0 W/m2 CLR
15:39 25.8 °C 12.2 °C 1014.4 hPa ESE 6.4 km/h 6.4 km/h 43 % 0.0 mm 673.0 W/m2 CLR
15:44 26.1 °C 12.2 °C 1014.4 hPa ESE 22.2 km/h 22.2 km/h 42 % 0.0 mm 485.0 W/m2 CLR
15:45 26.1 °C 12.2 °C 1014.4 hPa ESE 22.2 km/h 22.2 km/h 42 % 0.0 mm 571.0 W/m2 CLR
15:49 25.8 °C 11.9 °C 1014.4 hPa ESE 14.8 km/h 14.8 km/h 42 % 0.0 mm 786.0 W/m2 CLR
15:54 26.2 °C 12.3 °C 1014.4 hPa ESE 13.0 km/h 13.0 km/h 42 % 0.0 mm 1053.0 W/m2 CLR
15:59 26.4 °C 12.1 °C 1014.4 hPa ESE 18.5 km/h 18.5 km/h 41 % 0.0 mm 438.0 W/m2 CLR
16:04 25.9 °C 11.7 °C 1014.8 hPa SE 27.8 km/h 27.8 km/h 41 % 0.0 mm 378.0 W/m2 CLR
16:09 25.6 °C 11.7 °C 1014.4 hPa SE 11.3 km/h 11.3 km/h 42 % 0.0 mm 336.0 W/m2 CLR
16:14 26.1 °C 12.2 °C 1014.8 hPa SE 22.2 km/h 22.2 km/h 42 % 0.0 mm 995.0 W/m2 CLR
16:19 25.7 °C 11.1 °C 1014.8 hPa SSE 29.6 km/h 29.6 km/h 40 % 0.0 mm 352.0 W/m2 CLR
16:24 25.4 °C 10.8 °C 1014.8 hPa SE 20.4 km/h 20.4 km/h 40 % 0.0 mm 251.0 W/m2 CLR
16:29 25.5 °C 10.9 °C 1014.4 hPa South 16.7 km/h 16.7 km/h 40 % 0.0 mm 417.0 W/m2 CLR
16:34 25.6 °C 10.6 °C 1014.8 hPa ESE 18.5 km/h 18.5 km/h 39 % 0.0 mm 557.0 W/m2 CLR
16:40 25.7 °C 10.3 °C 1014.8 hPa SSE 25.9 km/h 25.9 km/h 38 % 0.0 mm 735.0 W/m2 CLR
16:45 25.8 °C 10.8 °C 1014.4 hPa SE 13.0 km/h 13.0 km/h 39 % 0.0 mm 677.0 W/m2 CLR
16:50 26.1 °C 10.6 °C 1014.4 hPa SSE 13.0 km/h 13.8 km/h 38 % 0.0 mm 745.0 W/m2 CLR
16:55 25.9 °C 11.3 °C 1014.4 hPa ESE 18.5 km/h 18.5 km/h 40 % 0.0 mm 721.0 W/m2 CLR
16:59 26.2 °C 10.8 °C 1014.4 hPa ESE 13.0 km/h 13.0 km/h 38 % 0.0 mm 696.0 W/m2 CLR
17:04 26.1 °C 10.7 °C 1014.8 hPa SE 29.6 km/h 29.6 km/h 38 % 0.0 mm 707.0 W/m2 CLR
17:09 25.8 °C 10.4 °C 1014.8 hPa SE 27.8 km/h 27.8 km/h 38 % 0.0 mm 694.0 W/m2 CLR
17:14 25.8 °C 10.4 °C 1014.8 hPa SE 24.1 km/h 24.1 km/h 38 % 0.0 mm 680.0 W/m2 CLR
17:19 25.7 °C 10.3 °C 1014.4 hPa ESE 18.5 km/h 18.5 km/h 38 % 0.0 mm 673.0 W/m2 CLR
17:24 25.6 °C 10.2 °C 1014.8 hPa ESE 27.8 km/h 27.8 km/h 38 % 0.0 mm 659.0 W/m2 CLR
17:29 25.4 °C 10.1 °C 1014.8 hPa SE 22.2 km/h 22.2 km/h 38 % 0.0 mm 621.0 W/m2 CLR
17:34 25.3 °C 9.9 °C 1014.8 hPa ESE 22.2 km/h 22.2 km/h 38 % 0.0 mm 575.0 W/m2 CLR
17:39 25.3 °C 10.4 °C 1014.4 hPa SE 24.1 km/h 24.1 km/h 39 % 0.0 mm 547.0 W/m2 CLR
17:45 25.4 °C 11.2 °C 1014.8 hPa SE 20.9 km/h 20.9 km/h 41 % 0.0 mm 545.0 W/m2 CLR
17:50 25.3 °C 11.5 °C 1014.8 hPa ESE 24.1 km/h 24.1 km/h 42 % 0.0 mm 149.0 W/m2 CLR
17:55 25.0 °C 11.2 °C 1014.8 hPa ESE 18.5 km/h 18.5 km/h 42 % 0.0 mm 183.0 W/m2 CLR
18:00 25.3 °C 11.4 °C 1014.8 hPa South 18.5 km/h 18.5 km/h 42 % 0.0 mm 540.0 W/m2 CLR
18:05 25.4 °C 11.6 °C 1014.8 hPa SE 18.5 km/h 18.5 km/h 42 % 0.0 mm 568.0 W/m2 CLR
18:10 25.4 °C 11.6 °C 1014.8 hPa SE 18.5 km/h 18.5 km/h 42 % 0.0 mm 246.0 W/m2 CLR
18:15 25.2 °C 11.7 °C 1014.8 hPa ESE 22.2 km/h 22.2 km/h 43 % 0.0 mm 211.0 W/m2 CLR
18:20 24.8 °C 12.1 °C 1015.1 hPa SE 22.2 km/h 22.2 km/h 45 % 0.0 mm 146.0 W/m2 CLR
18:25 24.6 °C 12.2 °C 1015.1 hPa SE 22.2 km/h 22.2 km/h 46 % 0.0 mm 244.0 W/m2 CLR
18:30 24.4 °C 12.1 °C 1015.1 hPa SE 20.4 km/h 20.4 km/h 46 % 0.0 mm 455.0 W/m2 CLR
18:35 24.4 °C 12.3 °C 1015.1 hPa SSE 20.4 km/h 20.4 km/h 47 % 0.0 mm 454.0 W/m2 CLR
18:40 24.3 °C 12.3 °C 1015.1 hPa ESE 24.1 km/h 24.1 km/h 47 % 0.0 mm 179.0 W/m2 CLR
18:45 24.1 °C 12.4 °C 1015.1 hPa SSE 24.1 km/h 24.1 km/h 48 % 0.0 mm 120.0 W/m2 CLR
18:50 24.1 °C 12.4 °C 1015.1 hPa SSE 22.2 km/h 22.2 km/h 48 % 0.0 mm 218.0 W/m2 CLR
18:55 23.8 °C 12.2 °C 1015.1 hPa SE 20.4 km/h 20.4 km/h 48 % 0.0 mm 58.0 W/m2 CLR
19:00 23.8 °C 12.2 °C 1015.5 hPa SSE 13.0 km/h 13.0 km/h 48 % 0.0 mm 58.0 W/m2 FEW
19:05 23.8 °C 12.1 °C 1015.5 hPa SSE 16.7 km/h 16.7 km/h 48 % 0.0 mm 35.0 W/m2 SCT
19:07 23.8 °C 12.1 °C 1015.5 hPa SSE 19.3 km/h 19.3 km/h 48 % 0.0 mm 32.0 W/m2 SCT
19:12 23.6 °C 11.9 °C 1015.5 hPa SSW 18.5 km/h 18.5 km/h 48 % 0.0 mm 26.0 W/m2 BKN
19:17 23.5 °C 12.2 °C 1015.8 hPa South 14.8 km/h 14.8 km/h 49 % 0.0 mm 21.0 W/m2 BKN
19:22 23.4 °C 12.1 °C 1015.8 hPa South 9.3 km/h 9.3 km/h 49 % 0.0 mm 21.0 W/m2 BKN
19:27 23.3 °C 11.7 °C 1016.1 hPa Calm     48 % 0.0 mm 21.0 W/m2 BKN
19:32 22.8 °C 13.0 °C 1016.5 hPa WNW 25.9 km/h 25.9 km/h 54 % 0.0 mm 19.0 W/m2 BKN
19:37 21.8 °C 13.2 °C 1016.5 hPa WNW 5.6 km/h   58 % 0.0 mm 19.0 W/m2 BKN
19:42 21.3 °C 12.7 °C 1016.1 hPa WNW 20.4 km/h 20.4 km/h 58 % 0.0 mm 26.0 W/m2 BKN
19:47 21.2 °C 12.6 °C 1016.1 hPa NW 22.2 km/h 22.2 km/h 58 % 0.0 mm 37.0 W/m2 BKN
19:52 21.1 °C 13.1 °C 1016.1 hPa West 16.7 km/h 16.7 km/h 60 % 0.0 mm 42.0 W/m2 BKN
19:57 21.1 °C 13.7 °C 1016.1 hPa SW 5.6 km/h 5.6 km/h 63 % 0.0 mm 62.0 W/m2 BKN
20:02 20.6 °C 13.8 °C 1015.8 hPa SW 7.4 km/h 7.4 km/h 65 % 0.0 mm 81.0 W/m2 SCT
20:07 20.3 °C 13.7 °C 1015.8 hPa WSW 3.7 km/h 3.7 km/h 66 % 0.0 mm 88.0 W/m2 FEW
20:12 20.2 °C 13.8 °C 1015.8 hPa Calm     67 % 0.0 mm 84.0 W/m2 CLR
20:17 20.1 °C 13.6 °C 1015.8 hPa Calm     66 % 0.0 mm 84.0 W/m2 CLR
20:22 20.2 °C 13.6 °C 1015.8 hPa Calm     66 % 0.0 mm 69.0 W/m2 FEW
20:27 20.3 °C 13.5 °C 1015.8 hPa Calm     65 % 0.0 mm 54.0 W/m2 SCT
20:32 20.4 °C 13.4 °C 1015.8 hPa Calm     64 % 0.0 mm 44.0 W/m2 SCT
20:42 20.8 °C 13.2 °C 1015.8 hPa Calm     62 % 0.0 mm 44.0 W/m2 BKN
20:47 21.0 °C 12.9 °C 1016.1 hPa Calm     60 % 0.0 mm 30.0 W/m2 BKN
20:52 21.1 °C 13.1 °C 1016.1 hPa Calm     60 % 0.0 mm 21.0 W/m2 BKN
20:57 21.2 °C 13.2 °C 1016.1 hPa Calm     60 % 0.0 mm 16.0 W/m2 BKN
21:02 21.2 °C 13.2 °C 1016.1 hPa Calm     60 % 0.0 mm 11.0 W/m2 BKN
21:07 21.2 °C 12.6 °C 1016.1 hPa Calm     58 % 0.0 mm 7.0 W/m2 BKN
21:12 21.3 °C 11.9 °C 1016.1 hPa Calm     55 % 0.0 mm 5.0 W/m2 OVC
21:17 21.4 °C 12.0 °C 1016.5 hPa Calm     55 % 0.0 mm 0.0 W/m2 OVC
21:22 21.4 °C 11.7 °C 1016.1 hPa Calm     54 % 0.0 mm 0.0 W/m2 OVC
21:27 21.5 °C 11.8 °C 1016.5 hPa SE 5.6 km/h 5.6 km/h 54 % 0.0 mm 0.0 W/m2 OVC
21:32 21.4 °C 11.7 °C 1016.5 hPa ESE 5.6 km/h 5.6 km/h 54 % 0.0 mm 0.0 W/m2 OVC
21:37 21.3 °C 11.9 °C 1016.5 hPa Calm     55 % 0.0 mm 0.0 W/m2 CLR
21:42 21.2 °C 12.1 °C 1016.5 hPa ESE 5.6 km/h 5.6 km/h 56 % 0.0 mm 0.0 W/m2 CLR
21:47 21.0 °C 11.9 °C 1016.5 hPa ESE 5.6 km/h 5.6 km/h 56 % 0.0 mm 0.0 W/m2 CLR
21:52 20.9 °C 11.8 °C 1016.5 hPa SE 7.4 km/h 7.4 km/h 56 % 0.0 mm 0.0 W/m2 CLR
21:57 20.7 °C 11.9 °C 1016.5 hPa Calm     57 % 0.0 mm 0.0 W/m2 CLR
22:02 20.6 °C 11.8 °C 1016.5 hPa SE 8.0 km/h 8.0 km/h 57 % 0.0 mm 0.0 W/m2 CLR
22:07 20.5 °C 11.7 °C 1016.5 hPa ESE 5.6 km/h 5.6 km/h 57 % 0.0 mm 0.0 W/m2 CLR
22:12 20.4 °C 11.6 °C 1016.5 hPa SE 7.4 km/h 7.4 km/h 57 % 0.0 mm 0.0 W/m2 CLR
22:17 20.3 °C 11.5 °C 1016.8 hPa Calm     57 % 0.0 mm 0.0 W/m2 CLR
22:22 20.2 °C 11.4 °C 1016.8 hPa Calm     57 % 0.0 mm 0.0 W/m2 CLR
22:27 20.1 °C 11.3 °C 1016.8 hPa Calm     57 % 0.0 mm 0.0 W/m2 CLR
22:32 20.1 °C 11.6 °C 1016.8 hPa Calm     58 % 0.0 mm 0.0 W/m2 CLR
22:37 20.0 °C 11.5 °C 1017.2 hPa Calm     58 % 0.0 mm 0.0 W/m2 CLR
22:42 19.9 °C 11.4 °C 1017.2 hPa Calm     58 % 0.0 mm 0.0 W/m2 CLR
22:52 19.7 °C 11.5 °C 1017.2 hPa Calm     59 % 0.0 mm 0.0 W/m2 CLR
22:57 19.6 °C 11.6 °C 1017.2 hPa Calm     60 % 0.0 mm 0.0 W/m2 CLR
22:59 19.5 °C 11.8 °C 1017.2 hPa Calm     61 % 0.0 mm 0.0 W/m2 CLR
23:04 19.2 °C 11.8 °C 1017.5 hPa Calm     62 % 0.0 mm 0.0 W/m2 CLR
23:09 19.0 °C 11.8 °C 1017.5 hPa Calm     63 % 0.0 mm 0.0 W/m2 CLR
23:15 18.9 °C 11.7 °C 1017.5 hPa Calm     63 % 0.0 mm 0.0 W/m2 CLR
23:20 18.8 °C 11.6 °C 1017.5 hPa Calm     63 % 0.0 mm 0.0 W/m2 CLR
23:25 18.7 °C 11.7 °C 1017.5 hPa Calm     64 % 0.0 mm 0.0 W/m2 CLR
23:30 18.5 °C 11.8 °C 1017.5 hPa Calm     65 % 0.0 mm 0.0 W/m2 CLR
23:35 18.4 °C 11.9 °C 1017.5 hPa Calm     66 % 0.0 mm 0.0 W/m2 CLR
23:40 18.3 °C 12.1 °C 1017.5 hPa Calm     67 % 0.0 mm 0.0 W/m2 CLR
23:45 18.5 °C 12.3 °C 1017.8 hPa Calm     67 % 0.0 mm 0.0 W/m2 CLR
23:50 18.3 °C 12.1 °C 1017.8 hPa Calm     67 % 0.0 mm 0.0 W/m2 CLR
23:55 18.1 °C 12.1 °C 1017.8 hPa Calm     68 % 0.0 mm 0.0 W/m2 CLR
Lo Temps de Massalio
Compliments of Weather Underground - 1.25 mb